createdAt,value
2018-05-13T00:00:20.380Z,64.36
2018-05-13T00:02:48.524Z,64.42
2018-05-13T00:05:16.717Z,64.49
2018-05-13T00:07:44.825Z,64.60
2018-05-13T00:10:12.926Z,64.59
2018-05-13T00:12:41.074Z,64.53
2018-05-13T00:15:09.184Z,64.57
2018-05-13T00:17:37.322Z,63.79
2018-05-13T00:20:05.473Z,64.04
2018-05-13T00:22:33.607Z,62.69
2018-05-13T00:25:05.041Z,62.54
2018-05-13T00:27:34.783Z,61.40
2018-05-13T00:30:03.219Z,62.29
2018-05-13T00:32:31.359Z,62.98
2018-05-13T00:34:59.497Z,62.07
2018-05-13T00:37:27.628Z,61.47
2018-05-13T00:39:55.751Z,61.15
2018-05-13T00:42:23.867Z,61.01
2018-05-13T00:44:51.998Z,60.92
2018-05-13T00:47:20.114Z,60.77
2018-05-13T00:49:48.256Z,60.22
2018-05-13T00:52:16.395Z,60.37
2018-05-13T00:54:54.466Z,60.25
2018-05-13T00:57:22.579Z,59.99
2018-05-13T00:59:50.723Z,60.33
2018-05-13T01:02:18.857Z,60.59
2018-05-13T01:04:46.968Z,60.72
2018-05-13T01:07:15.109Z,60.50
2018-05-13T01:09:43.249Z,60.53
2018-05-13T01:12:11.381Z,60.86
2018-05-13T01:14:39.490Z,60.44
2018-05-13T01:17:07.623Z,60.62
2018-05-13T01:19:35.742Z,60.81
2018-05-13T01:22:03.862Z,60.97
2018-05-13T01:24:31.999Z,61.20
2018-05-13T01:27:00.132Z,61.32
2018-05-13T01:29:28.268Z,61.58
2018-05-13T01:31:56.416Z,61.93
2018-05-13T01:34:27.847Z,62.19
2018-05-13T01:36:55.973Z,62.40
2018-05-13T01:39:24.109Z,62.80
2018-05-13T01:41:53.030Z,63.09
2018-05-13T01:44:21.138Z,63.26
2018-05-13T01:46:49.277Z,63.80
2018-05-13T01:49:17.399Z,64.35
2018-05-13T01:51:45.529Z,64.35
2018-05-13T01:54:13.660Z,64.61
2018-05-13T01:56:41.824Z,64.90
2018-05-13T01:59:09.935Z,64.98
2018-05-13T02:01:38.060Z,64.82
2018-05-13T02:04:06.174Z,65.25
2018-05-13T02:06:34.301Z,65.61
2018-05-13T02:09:02.433Z,65.62
2018-05-13T02:11:30.543Z,65.66
2018-05-13T02:13:58.684Z,65.76
2018-05-13T02:16:26.828Z,65.86
2018-05-13T02:18:57.181Z,66.92
2018-05-13T02:21:25.356Z,66.90
2018-05-13T02:23:53.437Z,66.98
2018-05-13T02:26:21.561Z,67.08
2018-05-13T02:28:49.666Z,67.35
2018-05-13T02:31:17.838Z,67.46
2018-05-13T02:33:45.967Z,67.52
2018-05-13T02:36:14.054Z,67.83
2018-05-13T02:38:42.188Z,67.48
2018-05-13T02:41:10.328Z,67.62
2018-05-13T02:43:38.468Z,67.99
2018-05-13T02:46:06.587Z,67.99
2018-05-13T02:48:34.736Z,68.11
2018-05-13T02:51:03.252Z,68.47
2018-05-13T02:53:31.395Z,68.82
2018-05-13T02:55:59.522Z,68.75
2018-05-13T02:58:27.645Z,69.04
2018-05-13T03:00:55.783Z,69.35
2018-05-13T03:03:23.895Z,69.52
2018-05-13T03:05:52.030Z,69.69
2018-05-13T03:08:20.169Z,69.98
2018-05-13T03:10:48.298Z,70.02
2018-05-13T03:13:16.431Z,70.17
2018-05-13T03:15:44.739Z,70.27
2018-05-13T03:18:12.861Z,70.29
2018-05-13T03:20:41.012Z,70.37
2018-05-13T03:23:09.163Z,70.86
2018-05-13T03:25:37.300Z,71.55
2018-05-13T03:28:05.421Z,71.73
2018-05-13T03:30:33.556Z,71.52
2018-05-13T03:33:01.697Z,71.54
2018-05-13T03:35:29.891Z,71.51
2018-05-13T03:37:58.109Z,71.94
2018-05-13T03:40:26.332Z,72.75
2018-05-13T03:42:54.637Z,74.65
2018-05-13T03:45:23.041Z,76.35
2018-05-13T03:47:51.142Z,77.29
2018-05-13T03:50:19.265Z,78.90
2018-05-13T03:52:47.394Z,79.70
2018-05-13T03:55:15.510Z,81.08
2018-05-13T03:57:43.660Z,81.43
2018-05-13T04:00:11.803Z,82.27
2018-05-13T04:02:39.930Z,82.63
2018-05-13T04:05:08.049Z,84.00
2018-05-13T04:07:53.918Z,83.92
2018-05-13T04:10:33.945Z,84.23
2018-05-13T04:13:13.814Z,84.17
2018-05-13T04:15:41.992Z,84.03
2018-05-13T04:18:10.437Z,84.39
2018-05-13T04:20:38.570Z,83.95
2018-05-13T04:23:06.715Z,84.22
2018-05-13T04:25:34.898Z,84.43
2018-05-13T04:28:03.102Z,84.55
2018-05-13T04:30:31.255Z,84.17
2018-05-13T04:33:00.095Z,85.28
2018-05-13T04:35:28.509Z,84.71
2018-05-13T04:37:56.644Z,85.19
2018-05-13T04:40:24.766Z,84.63
2018-05-13T04:42:52.904Z,85.20
2018-05-13T04:45:21.037Z,85.43
2018-05-13T04:47:49.175Z,85.58
2018-05-13T04:50:17.329Z,84.86
2018-05-13T04:52:45.475Z,84.97
2018-05-13T04:55:13.600Z,85.18
2018-05-13T04:57:41.831Z,84.85
2018-05-13T05:00:09.980Z,85.27
2018-05-13T05:02:38.118Z,85.36
2018-05-13T05:05:06.260Z,86.63
2018-05-13T05:07:34.381Z,87.21
2018-05-13T05:10:02.537Z,87.58
2018-05-13T05:12:30.647Z,87.08
2018-05-13T05:14:58.784Z,86.27
2018-05-13T05:17:26.919Z,86.23
2018-05-13T05:19:55.049Z,86.69
2018-05-13T05:22:23.181Z,87.66
2018-05-13T05:24:51.315Z,88.10
2018-05-13T05:27:19.438Z,88.11
2018-05-13T05:29:47.577Z,87.21
2018-05-13T05:32:15.711Z,87.08
2018-05-13T05:34:43.840Z,87.13
2018-05-13T05:37:11.976Z,87.31
2018-05-13T05:39:40.083Z,87.43
2018-05-13T05:42:08.289Z,87.65
2018-05-13T05:44:36.417Z,88.00
2018-05-13T05:47:04.563Z,87.59
2018-05-13T05:49:32.698Z,87.62
2018-05-13T05:52:00.806Z,87.58
2018-05-13T05:54:28.936Z,88.44
2018-05-13T05:56:57.109Z,89.49
2018-05-13T05:59:25.252Z,89.18
2018-05-13T06:01:53.344Z,88.91
2018-05-13T06:04:21.513Z,88.66
2018-05-13T06:06:49.631Z,87.53
2018-05-13T06:09:17.738Z,83.26
2018-05-13T06:11:45.893Z,83.86
2018-05-13T06:14:14.018Z,82.53
2018-05-13T06:16:42.546Z,82.16
2018-05-13T06:19:10.709Z,82.92
2018-05-13T06:21:38.838Z,80.54
2018-05-13T06:24:06.969Z,80.54
2018-05-13T06:26:35.095Z,80.52
2018-05-13T06:29:03.248Z,80.19
2018-05-13T06:31:35.088Z,79.28
2018-05-13T06:34:03.252Z,79.59
2018-05-13T06:36:31.396Z,78.40
2018-05-13T06:38:59.530Z,78.78
2018-05-13T06:41:27.685Z,79.20
2018-05-13T06:43:55.811Z,78.44
2018-05-13T06:46:23.937Z,78.60
2018-05-13T06:48:52.236Z,78.03
2018-05-13T06:51:20.424Z,78.01
2018-05-13T06:53:48.477Z,77.93
2018-05-13T06:56:16.617Z,76.90
2018-05-13T06:58:44.768Z,77.23
2018-05-13T07:01:12.954Z,76.28
2018-05-13T07:03:41.107Z,76.80
2018-05-13T07:06:09.231Z,77.04
2018-05-13T07:08:37.354Z,75.69
2018-05-13T07:11:05.512Z,75.91
2018-05-13T07:13:36.566Z,75.53
2018-05-13T07:16:04.825Z,76.36
2018-05-13T07:18:32.961Z,76.39
2018-05-13T07:21:01.083Z,76.42
2018-05-13T07:23:29.194Z,76.32
2018-05-13T07:25:57.321Z,75.48
2018-05-13T07:28:25.465Z,75.55
2018-05-13T07:30:53.607Z,75.94
2018-05-13T07:33:21.741Z,75.31
2018-05-13T07:35:49.854Z,75.70
2018-05-13T07:38:17.967Z,74.76
2018-05-13T07:40:46.098Z,76.24
2018-05-13T07:43:14.261Z,75.53
2018-05-13T07:45:42.386Z,75.62
2018-05-13T07:48:10.751Z,75.60
2018-05-13T07:50:39.512Z,76.18
2018-05-13T07:53:07.669Z,76.10
2018-05-13T07:55:35.842Z,76.08
2018-05-13T07:58:03.989Z,75.22
2018-05-13T08:00:32.136Z,74.55
2018-05-13T08:03:00.253Z,74.62
2018-05-13T08:05:28.483Z,74.90
2018-05-13T08:07:56.626Z,75.43
2018-05-13T08:10:24.759Z,74.59
2018-05-13T08:12:52.888Z,75.59
2018-05-13T08:15:21.021Z,76.09
2018-05-13T08:17:49.165Z,76.31
2018-05-13T08:20:17.360Z,75.96
2018-05-13T08:22:45.403Z,75.97
2018-05-13T08:25:13.576Z,75.98
2018-05-13T08:27:41.716Z,75.65
2018-05-13T08:30:09.850Z,75.75
2018-05-13T08:32:37.984Z,75.48
2018-05-13T08:35:06.102Z,75.15
2018-05-13T08:37:34.223Z,75.75
2018-05-13T08:40:02.368Z,76.06
2018-05-13T08:42:30.506Z,75.82
2018-05-13T08:44:58.615Z,75.49
2018-05-13T08:47:27.045Z,75.75
2018-05-13T08:49:55.196Z,75.99
2018-05-13T08:52:23.321Z,76.09
2018-05-13T08:54:51.444Z,75.85
2018-05-13T08:57:19.572Z,76.35
2018-05-13T08:59:47.697Z,76.96
2018-05-13T09:02:15.828Z,77.25
2018-05-13T09:04:43.947Z,77.80
2018-05-13T09:07:14.968Z,78.77
2018-05-13T09:09:43.110Z,79.29
2018-05-13T09:12:11.238Z,80.03
2018-05-13T09:14:39.397Z,80.24
2018-05-13T09:17:07.534Z,81.74
2018-05-13T09:19:35.672Z,81.73
2018-05-13T09:22:03.787Z,81.83
2018-05-13T09:24:32.184Z,81.65
2018-05-13T09:27:00.351Z,81.63
2018-05-13T09:29:28.522Z,82.93
2018-05-13T09:31:56.679Z,84.65
2018-05-13T09:34:24.809Z,83.52
2018-05-13T09:36:52.924Z,83.49
2018-05-13T09:39:21.295Z,83.77
2018-05-13T09:41:49.408Z,83.76
2018-05-13T09:44:17.527Z,84.31
2018-05-13T09:46:45.877Z,83.72
2018-05-13T09:49:14.013Z,83.74
2018-05-13T09:51:42.137Z,84.01
2018-05-13T09:54:10.272Z,83.26
2018-05-13T09:56:38.431Z,83.82
2018-05-13T09:59:06.582Z,83.38
2018-05-13T10:01:34.932Z,83.37
2018-05-13T10:04:03.131Z,83.16
2018-05-13T10:06:31.197Z,83.90
2018-05-13T10:08:59.335Z,84.00
2018-05-13T10:11:27.482Z,83.44
2018-05-13T10:13:55.614Z,82.83
2018-05-13T10:16:23.765Z,83.01
2018-05-13T10:18:51.892Z,83.96
2018-05-13T10:21:20.016Z,85.09
2018-05-13T10:23:48.401Z,86.09
2018-05-13T10:26:16.525Z,85.33
2018-05-13T10:28:44.662Z,82.93
2018-05-13T10:31:12.821Z,84.68
2018-05-13T10:33:40.949Z,85.13
2018-05-13T10:36:09.090Z,85.24
2018-05-13T10:38:37.226Z,86.35
2018-05-13T10:41:05.347Z,87.10
2018-05-13T10:43:33.480Z,87.92
2018-05-13T10:46:01.615Z,87.67
2018-05-13T10:48:29.737Z,87.67
2018-05-13T10:50:57.872Z,87.85
2018-05-13T10:53:26.009Z,87.50
2018-05-13T10:55:54.130Z,88.45
2018-05-13T10:58:22.257Z,89.49
2018-05-13T11:00:50.386Z,89.62
2018-05-13T11:03:18.517Z,90.17
2018-05-13T11:05:46.641Z,89.86
2018-05-13T11:08:14.796Z,90.33
2018-05-13T11:10:42.917Z,90.56
2018-05-13T11:13:11.060Z,89.59
2018-05-13T11:15:39.196Z,88.88
2018-05-13T11:18:07.314Z,89.34
2018-05-13T11:20:35.485Z,89.26
2018-05-13T11:23:03.581Z,89.34
2018-05-13T11:25:31.722Z,89.81
2018-05-13T11:27:59.844Z,88.68
2018-05-13T11:30:28.003Z,89.09
2018-05-13T11:32:56.125Z,89.14
2018-05-13T11:35:24.237Z,89.16
2018-05-13T11:37:52.384Z,89.51
2018-05-13T11:40:20.514Z,89.82
2018-05-13T11:42:49.043Z,88.66
2018-05-13T11:45:17.182Z,88.54
2018-05-13T11:47:45.309Z,88.08
2018-05-13T11:50:13.438Z,88.80
2018-05-13T11:52:41.554Z,88.80
2018-05-13T11:55:09.668Z,88.27
2018-05-13T11:57:37.801Z,88.45
2018-05-13T12:00:05.931Z,88.80
2018-05-13T12:02:34.047Z,88.75
2018-05-13T12:05:02.178Z,88.61
2018-05-13T12:07:30.325Z,89.47
2018-05-13T12:09:58.440Z,89.37
2018-05-13T12:12:26.592Z,88.88
2018-05-13T12:14:54.708Z,89.46
2018-05-13T12:17:22.821Z,89.09
2018-05-13T12:19:50.953Z,88.50
2018-05-13T12:22:19.153Z,88.91
2018-05-13T12:24:47.263Z,88.98
2018-05-13T12:27:15.405Z,89.45
2018-05-13T12:29:43.569Z,89.14
2018-05-13T12:32:11.714Z,89.05
2018-05-13T12:34:39.858Z,88.42
2018-05-13T12:37:08.018Z,88.42
2018-05-13T12:39:36.122Z,88.76
2018-05-13T12:42:04.257Z,89.36
2018-05-13T12:44:32.407Z,89.10
2018-05-13T12:47:00.528Z,89.34
2018-05-13T12:49:28.650Z,89.16
2018-05-13T12:51:56.788Z,89.33
2018-05-13T12:54:24.895Z,89.62
2018-05-13T12:56:53.040Z,90.39
2018-05-13T12:59:21.393Z,89.63
2018-05-13T13:01:49.503Z,90.43
2018-05-13T13:04:17.641Z,90.14
2018-05-13T13:06:45.801Z,89.06
2018-05-13T13:09:13.948Z,89.97
2018-05-13T13:11:42.018Z,90.27
2018-05-13T13:14:10.150Z,88.98
2018-05-13T13:16:38.282Z,89.42
2018-05-13T13:19:06.399Z,89.91
2018-05-13T13:21:34.525Z,90.26
2018-05-13T13:24:02.638Z,89.44
2018-05-13T13:26:30.773Z,89.16
2018-05-13T13:28:58.923Z,89.20
2018-05-13T13:31:27.934Z,89.72
2018-05-13T13:33:56.057Z,89.80
2018-05-13T13:36:24.193Z,89.05
2018-05-13T13:38:52.324Z,89.62
2018-05-13T13:41:20.453Z,89.62
2018-05-13T13:43:48.614Z,89.08
2018-05-13T13:46:16.772Z,89.71
2018-05-13T13:48:44.976Z,88.95
2018-05-13T13:51:13.163Z,89.30
2018-05-13T13:53:41.312Z,89.12
2018-05-13T13:56:09.597Z,88.52
2018-05-13T13:58:37.738Z,88.68
2018-05-13T14:01:05.889Z,88.29
2018-05-13T14:03:34.030Z,88.20
2018-05-13T14:06:02.157Z,87.99
2018-05-13T14:08:30.289Z,88.09
2018-05-13T14:10:58.434Z,88.25
2018-05-13T14:13:26.568Z,87.92
2018-05-13T14:15:54.696Z,88.33
2018-05-13T14:18:22.869Z,88.30
2018-05-13T14:20:54.310Z,88.21
2018-05-13T14:23:22.450Z,88.67
2018-05-13T14:25:50.591Z,88.58
2018-05-13T14:28:18.736Z,88.69
2018-05-13T14:30:46.857Z,89.52
2018-05-13T14:33:14.988Z,89.29
2018-05-13T14:35:43.132Z,89.07
2018-05-13T14:38:11.268Z,89.56
2018-05-13T14:40:39.399Z,89.42
2018-05-13T14:43:07.545Z,89.53
2018-05-13T14:45:35.651Z,89.92
2018-05-13T14:48:03.779Z,89.70
2018-05-13T14:50:32.135Z,89.67
2018-05-13T14:53:00.241Z,89.21
2018-05-13T14:55:28.381Z,89.40
2018-05-13T14:57:56.513Z,89.79
2018-05-13T15:00:24.664Z,89.48
2018-05-13T15:02:52.874Z,89.47
2018-05-13T15:05:21.040Z,89.76
2018-05-13T15:07:49.224Z,89.92
2018-05-13T15:10:17.444Z,89.69
2018-05-13T15:12:45.640Z,89.98
2018-05-13T15:15:13.768Z,90.18
2018-05-13T15:17:41.884Z,90.15
2018-05-13T15:20:13.238Z,90.02
2018-05-13T15:22:41.391Z,90.57
2018-05-13T15:25:09.502Z,90.51
2018-05-13T15:27:37.657Z,90.42
2018-05-13T15:30:05.800Z,91.02
2018-05-13T15:32:33.921Z,91.21
2018-05-13T15:35:02.096Z,90.93
2018-05-13T15:37:30.209Z,90.50
2018-05-13T15:39:58.443Z,90.10
2018-05-13T15:42:26.661Z,90.50
2018-05-13T15:44:54.723Z,90.08
2018-05-13T15:47:22.848Z,89.87
2018-05-13T15:49:50.992Z,89.65
2018-05-13T15:52:19.105Z,89.49
2018-05-13T15:54:47.289Z,89.96
2018-05-13T15:57:15.429Z,90.13
2018-05-13T15:59:43.559Z,89.82
2018-05-13T16:02:12.585Z,90.03
2018-05-13T16:04:40.699Z,89.74
2018-05-13T16:07:08.953Z,89.74
2018-05-13T16:09:37.060Z,89.60
2018-05-13T16:12:05.240Z,89.73
2018-05-13T16:14:33.371Z,90.05
2018-05-13T16:17:01.497Z,90.38
2018-05-13T16:19:29.651Z,90.28
2018-05-13T16:21:57.773Z,90.62
2018-05-13T16:24:25.928Z,91.10
2018-05-13T16:26:54.232Z,90.56
2018-05-13T16:29:22.391Z,90.40
2018-05-13T16:31:50.517Z,90.42
2018-05-13T16:34:18.661Z,90.66
2018-05-13T16:36:46.789Z,90.44
2018-05-13T16:39:14.898Z,90.43
2018-05-13T16:41:43.019Z,90.21
2018-05-13T16:44:11.139Z,90.03
2018-05-13T16:46:39.274Z,90.28
2018-05-13T16:49:07.410Z,90.60
2018-05-13T16:51:35.542Z,90.07
2018-05-13T16:54:06.939Z,90.09
2018-05-13T16:56:35.058Z,89.98
2018-05-13T16:59:06.969Z,89.82
2018-05-13T17:01:35.134Z,89.85
2018-05-13T17:04:03.223Z,90.30
2018-05-13T17:06:31.378Z,89.92
2018-05-13T17:08:59.502Z,90.08
2018-05-13T17:11:27.637Z,90.26
2018-05-13T17:13:55.770Z,90.12
2018-05-13T17:16:23.882Z,90.45
2018-05-13T17:18:52.295Z,90.33
2018-05-13T17:21:20.423Z,90.15
2018-05-13T17:23:48.541Z,90.63
2018-05-13T17:26:16.660Z,90.82
2018-05-13T17:28:44.793Z,90.53
2018-05-13T17:31:12.902Z,90.60
2018-05-13T17:33:41.038Z,90.54
2018-05-13T17:36:09.170Z,90.48
2018-05-13T17:38:37.303Z,90.23
2018-05-13T17:41:05.427Z,90.66
2018-05-13T17:43:33.563Z,89.62
2018-05-13T17:46:01.728Z,89.73
2018-05-13T17:48:29.875Z,89.91
2018-05-13T17:50:57.991Z,89.68
2018-05-13T17:53:26.117Z,89.10
2018-05-13T17:55:54.271Z,89.17
2018-05-13T17:58:22.379Z,88.66
2018-05-13T18:00:50.586Z,88.26
2018-05-13T18:03:18.750Z,88.64
2018-05-13T18:05:46.792Z,88.76
2018-05-13T18:08:14.931Z,88.64
2018-05-13T18:10:43.069Z,88.48
2018-05-13T18:13:11.205Z,88.09
2018-05-13T18:15:39.335Z,88.60
2018-05-13T18:18:07.473Z,88.19
2018-05-13T18:20:35.633Z,88.35
2018-05-13T18:23:03.762Z,88.74
2018-05-13T18:25:31.904Z,88.25
2018-05-13T18:27:59.999Z,88.19
2018-05-13T18:30:28.115Z,88.02
2018-05-13T18:32:56.557Z,88.17
2018-05-13T18:35:24.671Z,88.04
2018-05-13T18:37:52.815Z,87.82
2018-05-13T18:40:20.936Z,87.91
2018-05-13T18:42:49.083Z,87.69
2018-05-13T18:45:19.241Z,87.75
2018-05-13T18:47:47.417Z,87.74
2018-05-13T18:50:15.545Z,88.18
2018-05-13T18:52:43.648Z,88.33
2018-05-13T18:55:11.833Z,88.58
2018-05-13T18:57:39.959Z,88.91
2018-05-13T19:00:08.102Z,89.15
2018-05-13T19:02:36.946Z,88.99
2018-05-13T19:05:05.072Z,88.54
2018-05-13T19:07:33.183Z,87.64
2018-05-13T19:10:01.331Z,87.61
2018-05-13T19:12:29.456Z,86.83
2018-05-13T19:14:57.611Z,87.00
2018-05-13T19:17:25.756Z,87.22
2018-05-13T19:19:53.889Z,86.96
2018-05-13T19:22:22.011Z,86.93
2018-05-13T19:24:50.204Z,87.05
2018-05-13T19:27:18.260Z,87.18
2018-05-13T19:29:46.412Z,87.51
2018-05-13T19:32:14.549Z,87.09
2018-05-13T19:34:42.663Z,86.76
2018-05-13T19:37:10.784Z,87.07
2018-05-13T19:39:39.152Z,87.08
2018-05-13T19:42:07.283Z,87.53
2018-05-13T19:44:35.427Z,87.47
2018-05-13T19:47:03.570Z,87.38
2018-05-13T19:49:31.705Z,87.26
2018-05-13T19:51:59.844Z,87.71
2018-05-13T19:54:28.010Z,87.60
2018-05-13T19:56:56.130Z,87.45
2018-05-13T19:59:24.254Z,87.09
2018-05-13T20:01:53.080Z,87.11
2018-05-13T20:04:21.183Z,86.98
2018-05-13T20:06:49.325Z,87.11
2018-05-13T20:09:17.563Z,87.18
2018-05-13T20:11:45.630Z,86.94
2018-05-13T20:14:13.765Z,87.55
2018-05-13T20:16:41.930Z,87.56
2018-05-13T20:19:10.093Z,87.37
2018-05-13T20:21:38.229Z,87.65
2018-05-13T20:24:06.376Z,87.60
2018-05-13T20:26:34.508Z,87.34
2018-05-13T20:29:02.615Z,87.11
2018-05-13T20:31:33.971Z,87.43
2018-05-13T20:34:02.111Z,87.40
2018-05-13T20:36:30.222Z,87.20
2018-05-13T20:38:58.350Z,87.51
2018-05-13T20:41:26.495Z,87.58
2018-05-13T20:43:54.617Z,87.53
2018-05-13T20:46:22.754Z,87.36
2018-05-13T20:48:50.936Z,87.37
2018-05-13T20:51:19.214Z,87.61
2018-05-13T20:53:47.265Z,87.42
2018-05-13T20:56:15.432Z,87.27
2018-05-13T20:58:43.636Z,87.84
2018-05-13T21:01:11.834Z,87.29
2018-05-13T21:03:40.039Z,87.67
2018-05-13T21:06:08.162Z,88.08
2018-05-13T21:08:36.307Z,88.01
2018-05-13T21:11:04.418Z,87.79
2018-05-13T21:13:32.545Z,87.72
2018-05-13T21:16:00.741Z,88.05
2018-05-13T21:18:28.818Z,87.72
2018-05-13T21:20:56.956Z,87.88
2018-05-13T21:23:25.306Z,88.00
2018-05-13T21:25:53.441Z,88.18
2018-05-13T21:28:21.561Z,87.64
2018-05-13T21:30:49.786Z,87.97
2018-05-13T21:33:17.897Z,87.91
2018-05-13T21:35:46.011Z,87.85
2018-05-13T21:38:14.139Z,87.73
2018-05-13T21:40:42.280Z,87.75
2018-05-13T21:43:10.421Z,87.96
2018-05-13T21:45:38.601Z,88.17
2018-05-13T21:48:06.724Z,87.64
2018-05-13T21:50:34.863Z,87.54
2018-05-13T21:53:03.005Z,87.88
2018-05-13T21:55:31.140Z,87.80
2018-05-13T21:57:59.279Z,87.78
2018-05-13T22:00:27.410Z,87.58
2018-05-13T22:02:55.548Z,88.02
2018-05-13T22:05:23.689Z,88.28
2018-05-13T22:07:51.857Z,88.00
2018-05-13T22:10:19.955Z,87.93
2018-05-13T22:12:48.084Z,88.24
2018-05-13T22:15:16.221Z,88.34
2018-05-13T22:17:44.364Z,88.68
2018-05-13T22:20:12.486Z,88.75
2018-05-13T22:22:40.656Z,88.47
2018-05-13T22:25:08.755Z,88.63
2018-05-13T22:27:37.057Z,89.01
2018-05-13T22:30:05.204Z,88.89
2018-05-13T22:32:33.350Z,89.35
2018-05-13T22:35:01.469Z,89.23
2018-05-13T22:37:29.613Z,89.13
2018-05-13T22:39:57.724Z,89.02
2018-05-13T22:42:25.888Z,89.67
2018-05-13T22:44:54.054Z,89.79
2018-05-13T22:47:22.214Z,89.96
2018-05-13T22:49:50.325Z,89.79
2018-05-13T22:52:18.544Z,90.22
2018-05-13T22:54:46.602Z,90.26
2018-05-13T22:57:14.750Z,90.02
2018-05-13T22:59:42.889Z,89.86
2018-05-13T23:02:11.040Z,90.18
2018-05-13T23:04:39.150Z,90.56
2018-05-13T23:07:07.297Z,90.56
2018-05-13T23:09:35.415Z,90.58
2018-05-13T23:12:03.551Z,90.83
2018-05-13T23:14:31.919Z,90.91
2018-05-13T23:17:00.038Z,91.04
2018-05-13T23:19:28.172Z,91.35
2018-05-13T23:21:56.311Z,91.04
2018-05-13T23:24:24.445Z,91.80
2018-05-13T23:26:52.572Z,92.02
2018-05-13T23:29:20.990Z,91.71
2018-05-13T23:31:49.147Z,90.97
2018-05-13T23:34:17.292Z,92.04
2018-05-13T23:36:45.433Z,92.56
2018-05-13T23:39:13.666Z,91.79
2018-05-13T23:41:41.793Z,92.01
2018-05-13T23:44:09.941Z,92.04
2018-05-13T23:46:38.083Z,92.52
2018-05-13T23:49:06.235Z,92.78
2018-05-13T23:51:34.462Z,93.11
2018-05-13T23:54:02.521Z,92.81
2018-05-13T23:56:30.662Z,92.89
2018-05-13T23:58:58.778Z,93.11
